createdAt,value
2022-09-05T00:02:31.477Z,3.10
2022-09-05T00:05:38.587Z,3.20
2022-09-05T00:08:36.191Z,3.40
2022-09-05T00:11:42.569Z,3.30
2022-09-05T00:15:17.834Z,3.10
2022-09-05T00:21:36.774Z,2.90
2022-09-05T00:24:31.663Z,3.07
2022-09-05T00:24:32.143Z,3.10
2022-09-05T00:26:59.312Z,3.03
2022-09-05T00:29:42.034Z,3.33
2022-09-05T00:32:36.296Z,2.90
2022-09-05T00:35:44.632Z,3.17
2022-09-05T00:38:23.528Z,3.00
2022-09-05T00:40:57.107Z,3.40
2022-09-05T00:43:29.435Z,3.23
2022-09-05T00:46:01.738Z,3.27
2022-09-05T00:49:06.019Z,3.00
2022-09-05T00:51:38.866Z,3.53
2022-09-05T00:54:15.902Z,3.57
2022-09-05T00:57:09.090Z,3.23
2022-09-05T01:00:14.924Z,3.60
2022-09-05T01:03:09.459Z,3.40
2022-09-05T01:05:48.624Z,3.23
2022-09-05T01:08:37.137Z,3.50
2022-09-05T01:11:32.981Z,3.37
2022-09-05T01:14:27.587Z,3.87
2022-09-05T01:17:23.337Z,4.00
2022-09-05T01:20:19.016Z,3.83
2022-09-05T01:23:15.458Z,3.40
2022-09-05T01:25:55.332Z,3.40
2022-09-05T01:29:16.063Z,3.43
2022-09-05T01:31:45.681Z,3.83
2022-09-05T01:34:31.846Z,3.70
2022-09-05T01:36:59.050Z,4.07
2022-09-05T01:40:15.261Z,3.97
2022-09-05T01:43:16.788Z,3.87
2022-09-05T01:46:15.550Z,3.67
2022-09-05T01:49:16.495Z,3.93
2022-09-05T01:52:08.033Z,3.97
2022-09-05T01:54:49.393Z,3.20
2022-09-05T01:57:53.549Z,3.60
2022-09-05T02:00:30.601Z,3.90
2022-09-05T02:03:21.854Z,3.53
2022-09-05T02:05:59.918Z,3.97
2022-09-05T02:08:54.658Z,3.90
2022-09-05T02:11:55.867Z,4.03
2022-09-05T02:14:52.272Z,4.17
2022-09-05T02:17:50.067Z,3.90
2022-09-05T02:20:27.074Z,4.40
2022-09-05T02:22:56.629Z,5.23
2022-09-05T02:26:01.258Z,4.50
2022-09-05T02:28:45.897Z,4.77
2022-09-05T02:31:24.710Z,4.90
2022-09-05T02:34:21.581Z,4.17
2022-09-05T02:40:06.175Z,4.50
2022-09-05T02:45:04.041Z,3.77
2022-09-05T02:45:14.496Z,4.70
2022-09-05T02:46:37.542Z,4.40
2022-09-05T02:49:41.843Z,4.90
2022-09-05T02:57:25.428Z,4.03
2022-09-05T02:57:32.761Z,4.23
2022-09-05T02:58:07.839Z,4.60
2022-09-05T03:00:51.139Z,3.87
2022-09-05T03:03:26.496Z,4.10
2022-09-05T03:06:34.352Z,4.40
2022-09-05T03:09:34.490Z,4.47
2022-09-05T03:12:33.257Z,5.30
2022-09-05T03:15:18.637Z,4.80
2022-09-05T03:18:20.042Z,4.37
2022-09-05T03:21:13.206Z,4.40
2022-09-05T03:24:17.598Z,5.10
2022-09-05T03:27:10.366Z,4.60
2022-09-05T03:29:58.824Z,5.00
2022-09-05T03:32:59.251Z,5.37
2022-09-05T03:35:45.954Z,5.17
2022-09-05T03:38:31.259Z,5.53
2022-09-05T03:41:04.041Z,4.83
2022-09-05T03:43:55.297Z,5.20
2022-09-05T03:46:33.388Z,4.57
2022-09-05T03:50:20.839Z,4.40
2022-09-05T03:57:08.545Z,5.00
2022-09-05T03:57:20.050Z,4.37
2022-09-05T03:58:57.687Z,4.67
2022-09-05T04:05:01.015Z,4.40
2022-09-05T04:08:11.158Z,4.97
2022-09-05T04:08:19.114Z,5.00
2022-09-05T04:10:31.786Z,4.23
2022-09-05T04:13:23.464Z,5.60
2022-09-05T04:16:00.583Z,5.13
2022-09-05T04:18:35.019Z,5.50
2022-09-05T04:21:15.715Z,5.17
2022-09-05T04:24:06.549Z,5.27
2022-09-05T04:27:02.669Z,5.37
2022-09-05T04:29:44.556Z,5.23
2022-09-05T04:32:45.997Z,5.23
2022-09-05T04:35:39.894Z,5.17
2022-09-05T04:38:39.089Z,5.43
2022-09-05T04:41:39.012Z,5.13
2022-09-05T04:44:16.016Z,6.10
2022-09-05T04:46:52.030Z,5.90
2022-09-05T04:49:31.964Z,5.90
2022-09-05T04:52:11.246Z,5.90
2022-09-05T04:55:01.193Z,6.00
2022-09-05T04:57:49.584Z,5.50
2022-09-05T05:06:00.811Z,6.27
2022-09-05T05:06:15.301Z,6.17
2022-09-05T05:06:37.904Z,6.87
2022-09-05T05:09:21.906Z,5.67
2022-09-05T05:17:59.128Z,6.67
2022-09-05T05:18:10.552Z,6.47
2022-09-05T05:18:15.329Z,6.00
2022-09-05T05:21:18.339Z,6.40
2022-09-05T05:23:58.997Z,6.47
2022-09-05T05:26:32.140Z,6.67
2022-09-05T05:28:58.856Z,6.30
2022-09-05T05:31:35.467Z,6.90
2022-09-05T05:34:24.694Z,6.43
2022-09-05T05:37:00.567Z,6.90
2022-09-05T05:39:30.316Z,7.13
2022-09-05T05:41:58.924Z,7.00
2022-09-05T05:44:36.797Z,7.80
2022-09-05T05:47:28.343Z,6.57
2022-09-05T05:50:20.069Z,7.40
2022-09-05T05:53:06.028Z,6.97
2022-09-05T05:55:52.677Z,6.80
2022-09-05T05:58:25.829Z,7.37
2022-09-05T06:01:41.610Z,6.70
2022-09-05T06:04:23.652Z,7.63
2022-09-05T06:07:10.387Z,7.20
2022-09-05T06:14:23.494Z,7.90
2022-09-05T06:15:01.924Z,7.57
2022-09-05T06:15:54.703Z,7.20
2022-09-05T06:19:01.614Z,7.80
2022-09-05T06:22:15.737Z,7.57
2022-09-05T06:25:16.850Z,7.90
2022-09-05T06:28:18.128Z,7.90
2022-09-05T06:30:57.278Z,7.27
2022-09-05T06:34:00.834Z,7.73
2022-09-05T06:36:38.483Z,7.33
2022-09-05T06:39:34.274Z,8.20
2022-09-05T06:42:26.780Z,8.00
2022-09-05T06:45:28.433Z,8.00
2022-09-05T06:48:44.790Z,8.43
2022-09-05T06:51:31.790Z,7.27
2022-09-05T06:54:19.826Z,6.93
2022-09-05T06:56:58.360Z,7.00
2022-09-05T06:59:34.840Z,7.50
2022-09-05T07:02:11.924Z,7.23
2022-09-05T07:05:23.739Z,6.47
2022-09-05T07:07:46.051Z,5.73
2022-09-05T07:10:38.864Z,7.17
2022-09-05T07:13:20.099Z,6.20
2022-09-05T07:15:58.888Z,6.07
2022-09-05T07:18:34.932Z,7.77
2022-09-05T07:21:17.811Z,6.33
2022-09-05T07:24:08.958Z,5.07
2022-09-05T07:26:53.657Z,6.47
2022-09-05T07:29:33.176Z,6.07
2022-09-05T07:32:06.403Z,6.10
2022-09-05T07:34:36.017Z,5.60
2022-09-05T07:37:14.960Z,6.67
2022-09-05T07:39:54.047Z,5.60
2022-09-05T07:42:42.467Z,4.90
2022-09-05T07:45:22.095Z,4.80
2022-09-05T07:48:05.854Z,5.28
2022-09-05T07:54:00.562Z,5.10
2022-09-05T07:56:58.900Z,4.43
2022-09-05T07:57:08.835Z,4.30
2022-09-05T07:59:35.047Z,3.92
2022-09-05T08:02:02.518Z,5.43
2022-09-05T08:04:39.852Z,4.50
2022-09-05T08:07:46.922Z,3.97
2022-09-05T08:10:10.596Z,4.72
2022-09-05T08:13:22.633Z,3.80
2022-09-05T08:16:00.677Z,4.25
2022-09-05T08:19:10.336Z,3.63
2022-09-05T08:21:48.772Z,3.38
2022-09-05T08:24:48.815Z,3.83
2022-09-05T08:27:31.344Z,3.85
2022-09-05T08:30:26.035Z,4.07
2022-09-05T08:33:11.268Z,3.60
2022-09-05T08:35:47.466Z,4.07
2022-09-05T08:38:17.038Z,3.25
2022-09-05T08:41:08.416Z,3.58
2022-09-05T08:46:35.890Z,4.03
2022-09-05T08:47:02.537Z,3.95
2022-09-05T08:49:38.007Z,6.80
2022-09-05T08:52:18.948Z,4.13
2022-09-05T08:55:23.817Z,2.85
2022-09-05T08:57:55.092Z,2.90
2022-09-05T09:00:24.632Z,3.15
2022-09-05T09:03:25.843Z,2.95
2022-09-05T09:06:14.457Z,2.90
2022-09-05T09:08:45.417Z,2.75
2022-09-05T09:11:34.263Z,2.85
2022-09-05T09:14:55.155Z,2.67
2022-09-05T09:17:41.843Z,2.60
2022-09-05T09:20:36.592Z,2.58
2022-09-05T09:23:32.144Z,2.42
2022-09-05T09:26:17.982Z,3.10
2022-09-05T09:29:04.113Z,2.83
2022-09-05T09:31:56.367Z,2.70
2022-09-05T09:34:29.598Z,2.35
2022-09-05T09:37:16.131Z,2.75
2022-09-05T09:40:10.611Z,2.90
2022-09-05T09:43:08.327Z,2.42
2022-09-05T09:46:16.032Z,2.45
2022-09-05T09:49:23.669Z,2.40
2022-09-05T09:52:20.946Z,2.42
2022-09-05T09:55:08.998Z,3.13
2022-09-05T09:58:22.486Z,2.35
2022-09-05T10:01:36.722Z,2.50
2022-09-05T10:10:17.630Z,2.50
2022-09-05T10:10:51.764Z,2.40
2022-09-05T10:11:44.052Z,2.40
2022-09-05T10:14:49.005Z,2.15
2022-09-05T10:17:42.217Z,2.45
2022-09-05T10:20:35.997Z,2.28
2022-09-05T10:23:22.439Z,2.38
2022-09-05T10:26:27.488Z,2.60
2022-09-05T10:29:35.117Z,2.15
2022-09-05T10:35:11.721Z,2.45
2022-09-05T10:35:17.538Z,2.67
2022-09-05T10:37:57.122Z,2.08
2022-09-05T10:40:26.639Z,2.15
2022-09-05T10:43:02.442Z,2.17
2022-09-05T10:45:56.857Z,2.10
2022-09-05T10:48:29.235Z,2.33
2022-09-05T10:51:11.637Z,2.72
2022-09-05T10:54:21.286Z,2.30
2022-09-05T10:57:03.107Z,1.98
2022-09-05T11:02:23.255Z,2.10
2022-09-05T11:02:36.753Z,2.22
2022-09-05T11:05:19.384Z,2.28
2022-09-05T11:07:53.129Z,1.70
2022-09-05T11:10:22.457Z,1.80
2022-09-05T11:13:11.019Z,1.90
2022-09-05T11:16:04.930Z,1.75
2022-09-05T11:18:56.435Z,1.90
2022-09-05T11:22:23.873Z,2.38
2022-09-05T11:25:04.950Z,1.80
2022-09-05T11:27:44.943Z,1.88
2022-09-05T11:31:01.610Z,1.70
2022-09-05T11:39:45.767Z,1.77
2022-09-05T11:40:09.799Z,1.50
2022-09-05T11:41:11.476Z,1.55
2022-09-05T11:47:47.262Z,1.60
2022-09-05T11:50:30.156Z,1.75
2022-09-05T11:53:06.512Z,1.75
2022-09-05T11:55:54.687Z,1.95
2022-09-05T11:59:05.128Z,1.95
2022-09-05T12:02:10.968Z,1.70
2022-09-05T12:05:49.031Z,1.60
2022-09-05T12:08:57.298Z,1.50
2022-09-05T12:12:30.008Z,1.80
2022-09-05T12:14:55.186Z,1.80
2022-09-05T12:25:15.727Z,1.80
2022-09-05T12:27:59.925Z,1.50
2022-09-05T12:31:53.945Z,1.60
2022-09-05T12:36:04.556Z,1.77
2022-09-05T12:40:21.507Z,1.77
2022-09-05T12:41:33.575Z,1.40
2022-09-05T12:42:49.739Z,1.75
2022-09-05T12:45:50.531Z,1.60
2022-09-05T12:48:38.853Z,1.65
2022-09-05T12:51:45.303Z,1.50
2022-09-05T12:54:33.195Z,1.92
2022-09-05T12:59:33.463Z,1.92
2022-09-05T13:03:04.402Z,1.48
2022-09-05T13:03:40.597Z,1.70
2022-09-05T13:06:06.557Z,1.67
2022-09-05T13:08:59.279Z,1.88
2022-09-05T13:14:50.602Z,1.75
2022-09-05T13:15:00.833Z,2.00
2022-09-05T13:17:14.018Z,2.00
2022-09-05T13:19:51.260Z,1.58
2022-09-05T13:22:25.195Z,1.60
2022-09-05T13:25:10.045Z,1.60
2022-09-05T13:27:46.653Z,1.70
2022-09-05T13:31:30.377Z,1.80
2022-09-05T13:38:03.626Z,1.77
2022-09-05T13:38:07.594Z,1.83
2022-09-05T13:39:06.863Z,1.92
2022-09-05T13:41:37.199Z,1.80
2022-09-05T13:44:25.330Z,1.92
2022-09-05T13:47:05.157Z,2.00
2022-09-05T13:50:05.837Z,1.95
2022-09-05T13:52:44.516Z,1.80
2022-09-05T13:55:25.337Z,2.25
2022-09-05T13:58:07.388Z,2.15
2022-09-05T14:00:37.931Z,1.70
2022-09-05T14:03:30.877Z,2.00
2022-09-05T14:06:46.644Z,1.67
2022-09-05T14:09:39.686Z,1.73
2022-09-05T14:12:31.820Z,1.80
2022-09-05T14:15:30.439Z,1.92
2022-09-05T14:18:20.547Z,2.08
2022-09-05T14:21:10.549Z,1.65
2022-09-05T14:23:53.717Z,1.80
2022-09-05T14:26:24.751Z,1.70
2022-09-05T14:29:14.600Z,1.70
2022-09-05T14:37:41.744Z,1.63
2022-09-05T14:37:44.630Z,1.80
2022-09-05T14:38:19.581Z,1.67
2022-09-05T14:41:07.518Z,1.70
2022-09-05T14:44:09.123Z,1.58
2022-09-05T14:46:50.959Z,1.70
2022-09-05T14:49:55.607Z,1.70
2022-09-05T14:52:43.210Z,1.75
2022-09-05T14:55:20.055Z,1.75
2022-09-05T15:02:44.500Z,1.83
2022-09-05T15:02:56.472Z,1.60
2022-09-05T15:06:37.151Z,1.60
2022-09-05T15:11:58.390Z,1.65
2022-09-05T15:12:34.048Z,1.58
2022-09-05T15:15:15.645Z,1.80
2022-09-05T15:17:51.631Z,1.50
2022-09-05T15:20:29.805Z,1.70
2022-09-05T15:22:57.723Z,1.70
2022-09-05T15:25:27.704Z,1.63
2022-09-05T15:27:55.083Z,1.80
2022-09-05T15:30:35.262Z,1.58
2022-09-05T15:33:26.820Z,1.70
2022-09-05T15:36:03.521Z,1.90
2022-09-05T15:38:55.247Z,2.00
2022-09-05T15:41:30.399Z,1.60
2022-09-05T15:44:09.423Z,1.52
2022-09-05T15:46:49.506Z,1.58
2022-09-05T15:49:43.889Z,1.50
2022-09-05T15:52:16.900Z,1.70
2022-09-05T15:55:01.165Z,1.90
2022-09-05T15:57:36.152Z,1.75
2022-09-05T16:00:11.028Z,1.60
2022-09-05T16:02:47.168Z,1.70
2022-09-05T16:10:28.010Z,1.88
2022-09-05T16:10:36.898Z,1.48
2022-09-05T16:12:00.341Z,1.70
2022-09-05T16:16:32.290Z,2.00
2022-09-05T16:23:25.659Z,1.33
2022-09-05T16:23:28.821Z,1.63
2022-09-05T16:23:40.703Z,1.55
2022-09-05T16:26:19.105Z,1.75
2022-09-05T16:29:02.988Z,7.80
2022-09-05T16:31:47.069Z,7.13
2022-09-05T16:34:46.219Z,4.80
2022-09-05T16:37:35.920Z,2.78
2022-09-05T16:40:28.212Z,2.42
2022-09-05T16:43:02.472Z,1.60
2022-09-05T16:45:32.364Z,2.00
2022-09-05T16:48:21.968Z,2.38
2022-09-05T16:51:15.286Z,1.77
2022-09-05T16:54:11.533Z,1.90
2022-09-05T16:56:55.868Z,1.83
2022-09-05T16:59:28.477Z,1.80
2022-09-05T17:02:10.901Z,2.20
2022-09-05T17:04:56.342Z,2.45
2022-09-05T17:08:09.590Z,2.00
2022-09-05T17:10:57.246Z,1.77
2022-09-05T17:13:47.059Z,1.88
2022-09-05T17:16:45.845Z,1.70
2022-09-05T17:19:24.092Z,2.53
2022-09-05T17:27:31.829Z,1.70
2022-09-05T17:29:24.590Z,2.03
2022-09-05T17:29:32.595Z,2.15
2022-09-05T17:31:58.468Z,3.00
2022-09-05T17:34:50.128Z,2.30
2022-09-05T17:37:46.285Z,2.25
2022-09-05T17:40:32.350Z,2.40
2022-09-05T17:43:28.774Z,2.30
2022-09-05T17:46:17.449Z,2.13
2022-09-05T17:49:07.062Z,2.20
2022-09-05T17:51:51.311Z,2.40
2022-09-05T17:54:30.124Z,2.50
2022-09-05T17:57:29.054Z,2.45
2022-09-05T18:00:12.045Z,3.47
2022-09-05T18:02:59.579Z,6.53
2022-09-05T18:05:54.916Z,7.43
2022-09-05T18:08:45.797Z,8.35
2022-09-05T18:11:26.141Z,6.18
2022-09-05T18:14:05.991Z,5.70
2022-09-05T18:17:37.572Z,4.43
2022-09-05T18:19:57.831Z,4.03
2022-09-05T18:22:32.700Z,4.15
2022-09-05T18:25:30.595Z,12.00
2022-09-05T18:28:08.609Z,10.15
2022-09-05T18:33:55.444Z,4.25
2022-09-05T18:35:54.933Z,2.88
2022-09-05T18:38:50.922Z,3.05
2022-09-05T18:41:21.699Z,2.95
2022-09-05T18:44:13.826Z,3.05
2022-09-05T18:47:00.311Z,3.65
2022-09-05T18:50:23.969Z,3.25
2022-09-05T18:52:30.281Z,3.10
2022-09-05T18:55:33.968Z,3.40
2022-09-05T18:57:58.016Z,3.97
2022-09-05T19:00:46.773Z,3.60
2022-09-05T19:03:30.173Z,3.30
2022-09-05T19:06:37.203Z,5.55
2022-09-05T19:09:06.853Z,5.05
2022-09-05T19:11:56.523Z,5.00
2022-09-05T19:14:49.321Z,4.05
2022-09-05T19:17:27.282Z,4.78
2022-09-05T19:20:32.515Z,4.00
2022-09-05T19:23:13.337Z,4.32
2022-09-05T19:25:51.772Z,3.72
2022-09-05T19:36:45.998Z,3.53
2022-09-05T19:37:08.358Z,3.58
2022-09-05T19:37:12.160Z,3.63
2022-09-05T19:37:38.256Z,3.60
2022-09-05T19:46:17.037Z,3.45
2022-09-05T19:47:28.747Z,3.03
2022-09-05T19:47:43.621Z,2.72
2022-09-05T19:48:34.832Z,2.55
2022-09-05T19:51:28.665Z,2.80
2022-09-05T19:54:03.836Z,2.70
2022-09-05T19:56:46.545Z,2.40
2022-09-05T19:59:27.104Z,2.72
2022-09-05T20:02:02.032Z,2.60
2022-09-05T20:04:33.496Z,2.63
2022-09-05T20:07:14.714Z,2.83
2022-09-05T20:09:47.119Z,3.03
2022-09-05T20:12:24.559Z,2.45
2022-09-05T20:14:51.556Z,2.78
2022-09-05T20:17:31.133Z,2.95
2022-09-05T20:20:15.400Z,2.78
2022-09-05T20:22:50.566Z,2.92
2022-09-05T20:25:40.483Z,2.67
2022-09-05T20:28:11.003Z,3.47
2022-09-05T20:30:43.282Z,3.40
2022-09-05T20:33:42.330Z,3.40
2022-09-05T20:41:44.909Z,3.50
2022-09-05T20:43:10.590Z,3.75
2022-09-05T20:43:28.731Z,4.00
2022-09-05T20:44:48.308Z,3.28
2022-09-05T20:54:07.174Z,3.22
2022-09-05T20:54:12.983Z,4.15
2022-09-05T20:54:16.796Z,3.78
2022-09-05T20:56:25.886Z,3.80
2022-09-05T20:58:55.665Z,3.35
2022-09-05T21:01:23.624Z,3.97
2022-09-05T21:04:04.712Z,3.78
2022-09-05T21:06:36.102Z,3.28
2022-09-05T21:09:25.053Z,3.50
2022-09-05T21:11:54.923Z,3.85
2022-09-05T21:14:23.366Z,4.03
2022-09-05T21:17:15.326Z,4.03
2022-09-05T21:19:54.253Z,3.75
2022-09-05T21:22:21.163Z,3.65
2022-09-05T21:24:48.649Z,4.30
2022-09-05T21:27:24.027Z,3.63
2022-09-05T21:29:59.295Z,3.45
2022-09-05T21:32:33.469Z,3.53
2022-09-05T21:35:34.572Z,3.85
2022-09-05T21:37:53.720Z,3.60
2022-09-05T21:40:21.419Z,3.58
2022-09-05T21:47:21.668Z,3.83
2022-09-05T21:47:38.332Z,4.00
2022-09-05T21:48:23.882Z,3.58
2022-09-05T21:50:57.987Z,3.47
2022-09-05T21:57:01.757Z,3.83
2022-09-05T21:59:16.404Z,3.78
2022-09-05T21:59:45.973Z,3.63
2022-09-05T22:02:31.217Z,4.43
2022-09-05T22:05:03.648Z,4.00
2022-09-05T22:07:35.917Z,3.40
2022-09-05T22:10:09.859Z,3.70
2022-09-05T22:12:43.661Z,4.03
2022-09-05T22:15:38.413Z,3.90
2022-09-05T22:18:17.262Z,3.65
2022-09-05T22:20:51.310Z,3.67
2022-09-05T22:23:37.160Z,3.70
2022-09-05T22:26:18.146Z,3.95
2022-09-05T22:29:15.945Z,3.38
2022-09-05T22:32:34.265Z,3.50
2022-09-05T22:42:03.927Z,4.05
2022-09-05T22:44:37.844Z,3.25
2022-09-05T22:47:05.842Z,3.88
2022-09-05T22:49:32.726Z,3.47
2022-09-05T22:51:59.503Z,3.35
2022-09-05T22:54:26.312Z,3.97
2022-09-05T22:56:54.285Z,3.70
2022-09-05T22:59:21.311Z,3.35
2022-09-05T23:01:48.286Z,3.83
2022-09-05T23:04:15.678Z,3.50
2022-09-05T23:06:42.717Z,3.40
2022-09-05T23:09:09.835Z,3.45
2022-09-05T23:11:36.922Z,3.43
2022-09-05T23:14:04.011Z,3.55
2022-09-05T23:16:31.165Z,3.72
2022-09-05T23:18:58.400Z,3.60
2022-09-05T23:21:25.156Z,3.17
2022-09-05T23:23:52.059Z,3.15
2022-09-05T23:26:18.871Z,3.42
2022-09-05T23:28:46.216Z,3.17
2022-09-05T23:31:13.202Z,3.25
2022-09-05T23:33:42.054Z,3.40
2022-09-05T23:36:12.690Z,3.55
2022-09-05T23:38:42.050Z,3.15
2022-09-05T23:41:12.363Z,3.20
2022-09-05T23:43:39.215Z,3.45
2022-09-05T23:46:06.793Z,4.00
2022-09-05T23:48:34.246Z,3.28
2022-09-05T23:51:12.377Z,4.03
2022-09-05T23:53:40.206Z,3.80
2022-09-05T23:56:09.164Z,3.60
2022-09-05T23:58:37.127Z,3.67
